sensor_id;sensor_type;location;lat;lon;timestamp;P1;durP1;ratioP1;P2;durP2;ratioP2
58661;SDS011;44432;49.786;22.760;2024-03-23T20:50:41;7.10;;;4.00;;
58661;SDS011;44432;49.786;22.760;2024-03-23T20:53:13;5.80;;;3.30;;
58661;SDS011;44432;49.786;22.760;2024-03-23T20:55:50;9.70;;;4.10;;
58661;SDS011;44432;49.786;22.760;2024-03-23T20:58:22;5.50;;;2.70;;
58661;SDS011;44432;49.786;22.760;2024-03-23T21:00:54;5.60;;;2.60;;
58661;SDS011;44432;49.786;22.760;2024-03-23T21:03:27;6.80;;;3.00;;
58661;SDS011;44432;49.786;22.760;2024-03-23T21:05:58;5.80;;;2.70;;
58661;SDS011;44432;49.786;22.760;2024-03-23T21:08:31;6.10;;;2.80;;
58661;SDS011;44432;49.786;22.760;2024-03-23T21:11:02;5.50;;;2.60;;
58661;SDS011;44432;49.786;22.760;2024-03-23T21:13:35;5.30;;;2.80;;
58661;SDS011;44432;49.786;22.760;2024-03-23T21:16:05;7.70;;;3.30;;
58661;SDS011;44432;49.786;22.760;2024-03-23T21:18:36;6.50;;;2.90;;
58661;SDS011;44432;49.786;22.760;2024-03-23T21:21:07;5.40;;;2.80;;
58661;SDS011;44432;49.786;22.760;2024-03-23T21:23:38;5.60;;;3.40;;
58661;SDS011;44432;49.786;22.760;2024-03-23T21:26:08;5.40;;;3.10;;
58661;SDS011;44432;49.786;22.760;2024-03-23T21:28:38;6.70;;;3.20;;
58661;SDS011;44432;49.786;22.760;2024-03-23T21:31:09;5.60;;;2.40;;
58661;SDS011;44432;49.786;22.760;2024-03-23T21:33:39;6.20;;;3.20;;
58661;SDS011;44432;49.786;22.760;2024-03-23T21:36:10;6.00;;;2.80;;
58661;SDS011;44432;49.786;22.760;2024-03-23T21:38:40;5.50;;;3.20;;
58661;SDS011;44432;49.786;22.760;2024-03-23T21:41:10;6.30;;;3.10;;
58661;SDS011;44432;49.786;22.760;2024-03-23T21:43:41;7.20;;;3.80;;
58661;SDS011;44432;49.786;22.760;2024-03-23T21:46:11;9.20;;;3.50;;
58661;SDS011;44432;49.786;22.760;2024-03-23T21:48:42;5.80;;;3.00;;
58661;SDS011;44432;49.786;22.760;2024-03-23T21:51:12;7.40;;;3.70;;
58661;SDS011;44432;49.786;22.760;2024-03-23T21:53:44;6.40;;;3.60;;
58661;SDS011;44432;49.786;22.760;2024-03-23T21:56:14;5.90;;;3.40;;
58661;SDS011;44432;49.786;22.760;2024-03-23T21:58:44;5.80;;;3.50;;
58661;SDS011;44432;49.786;22.760;2024-03-23T22:01:15;7.00;;;3.60;;
58661;SDS011;44432;49.786;22.760;2024-03-23T22:03:45;6.30;;;3.70;;
58661;SDS011;44432;49.786;22.760;2024-03-23T22:06:15;7.60;;;3.60;;
58661;SDS011;44432;49.786;22.760;2024-03-23T22:08:46;5.80;;;3.00;;
58661;SDS011;44432;49.786;22.760;2024-03-23T22:11:16;6.20;;;3.00;;
58661;SDS011;44432;49.786;22.760;2024-03-23T22:13:46;6.80;;;3.60;;
58661;SDS011;44432;49.786;22.760;2024-03-23T22:16:17;7.70;;;3.70;;
58661;SDS011;44432;49.786;22.760;2024-03-23T22:18:47;12.50;;;6.70;;
58661;SDS011;44432;49.786;22.760;2024-03-23T22:21:18;8.10;;;4.30;;
58661;SDS011;44432;49.786;22.760;2024-03-23T22:23:48;8.40;;;5.10;;
58661;SDS011;44432;49.786;22.760;2024-03-23T22:26:19;5.90;;;3.10;;
58661;SDS011;44432;49.786;22.760;2024-03-23T22:28:49;6.70;;;3.70;;
58661;SDS011;44432;49.786;22.760;2024-03-23T22:31:19;6.90;;;3.40;;
58661;SDS011;44432;49.786;22.760;2024-03-23T22:33:49;8.40;;;4.20;;
58661;SDS011;44432;49.786;22.760;2024-03-23T22:36:20;5.60;;;3.40;;
58661;SDS011;44432;49.786;22.760;2024-03-23T22:38:50;7.40;;;3.60;;
58661;SDS011;44432;49.786;22.760;2024-03-23T22:41:21;6.80;;;3.30;;
58661;SDS011;44432;49.786;22.760;2024-03-23T22:43:51;4.70;;;3.40;;
58661;SDS011;44432;49.786;22.760;2024-03-23T22:46:21;4.90;;;3.10;;
58661;SDS011;44432;49.786;22.760;2024-03-23T22:48:51;6.50;;;3.70;;
58661;SDS011;44432;49.786;22.760;2024-03-23T22:51:22;6.00;;;3.90;;
58661;SDS011;44432;49.786;22.760;2024-03-23T22:53:52;6.00;;;3.20;;
58661;SDS011;44432;49.786;22.760;2024-03-23T22:56:22;5.10;;;3.00;;
58661;SDS011;44432;49.786;22.760;2024-03-23T22:58:52;3.30;;;1.80;;
58661;SDS011;44432;49.786;22.760;2024-03-23T23:01:23;4.10;;;1.90;;
58661;SDS011;44432;49.786;22.760;2024-03-23T23:03:53;4.70;;;2.50;;
58661;SDS011;44432;49.786;22.760;2024-03-23T23:06:24;4.40;;;2.60;;
58661;SDS011;44432;49.786;22.760;2024-03-23T23:08:54;4.40;;;2.40;;
58661;SDS011;44432;49.786;22.760;2024-03-23T23:11:24;3.80;;;2.30;;
58661;SDS011;44432;49.786;22.760;2024-03-23T23:13:54;2.90;;;2.00;;
58661;SDS011;44432;49.786;22.760;2024-03-23T23:16:25;3.20;;;2.10;;
58661;SDS011;44432;49.786;22.760;2024-03-23T23:18:56;3.20;;;2.10;;
58661;SDS011;44432;49.786;22.760;2024-03-23T23:21:26;4.70;;;2.30;;
58661;SDS011;44432;49.786;22.760;2024-03-23T23:23:56;4.10;;;2.20;;
58661;SDS011;44432;49.786;22.760;2024-03-23T23:26:27;4.20;;;2.20;;
58661;SDS011;44432;49.786;22.760;2024-03-23T23:28:58;4.50;;;2.30;;
58661;SDS011;44432;49.786;22.760;2024-03-23T23:31:28;3.60;;;2.20;;
58661;SDS011;44432;49.786;22.760;2024-03-23T23:33:58;3.10;;;1.90;;
58661;SDS011;44432;49.786;22.760;2024-03-23T23:36:28;3.60;;;2.00;;
58661;SDS011;44432;49.786;22.760;2024-03-23T23:38:59;3.10;;;2.00;;
58661;SDS011;44432;49.786;22.760;2024-03-23T23:41:29;3.80;;;2.10;;
58661;SDS011;44432;49.786;22.760;2024-03-23T23:43:59;5.00;;;2.20;;
58661;SDS011;44432;49.786;22.760;2024-03-23T23:46:33;7.40;;;2.30;;
58661;SDS011;44432;49.786;22.760;2024-03-23T23:49:03;4.60;;;2.40;;
58661;SDS011;44432;49.786;22.760;2024-03-23T23:51:33;5.00;;;2.60;;
58661;SDS011;44432;49.786;22.760;2024-03-23T23:54:04;3.80;;;2.20;;
58661;SDS011;44432;49.786;22.760;2024-03-23T23:56:34;4.30;;;2.70;;
58661;SDS011;44432;49.786;22.760;2024-03-23T23:59:04;5.70;;;3.40;;
